Time;durP1;ratioP1;P1;durP2;ratioP2;P2;SDS_P1;SDS_P2;PMS_P1;PMS_P2;Temp;Humidity;BMP_temperature;BMP_pressure;BME280_temperature;BME280_humidity;BME280_pressure;Samples;Min_cycle;Max_cycle;Signal;HPM_P1;HPM_P2
2022/04/04 00:01:06;;;;;;;;;;;;;;;7.22;59.81;99950.06;5005372;28;19925;-82
2022/04/04 00:03:31;;;;;;;;;;;;;;;6.98;60.46;99958.72;5005485;28;19918;-82
2022/04/04 00:05:57;;;;;;;;;;;;;;;7.08;59.82;99960.53;4986347;28;20328;-82
2022/04/04 00:08:22;;;;;;;;;;;;;;;7.24;59.94;99969.31;4993691;28;19925;-82
2022/04/04 00:10:47;;;;;;;;;;;;;;;7.09;59.77;99979.75;5020174;28;20004;-82
2022/04/04 00:13:13;;;;;;;;;;;;;;;7.14;59.92;99978.03;4997421;28;19930;-82
2022/04/04 00:15:38;;;;;;;;;;;;;;;7.03;59.97;99977.09;5016197;28;19925;-81
2022/04/04 00:18:07;;;;;;;;;;;;;;;7.14;60.17;99984.16;5001040;28;19933;-82
2022/04/04 00:20:32;;;;;;;;;;;;;;;7.07;59.69;99981.50;4975356;28;19930;-82
2022/04/04 00:22:58;;;;;;;;;;;;;;;6.92;59.60;99985.81;4976377;28;19925;-82
2022/04/04 00:25:23;;;;;;;;;;;;;;;6.98;59.57;99987.56;4987759;28;19933;-82
2022/04/04 00:27:50;;;;;;;;;;;;;;;6.98;59.05;99974.47;5001881;28;19936;-82
2022/04/04 00:30:16;;;;;;;;;;;;;;;6.86;59.32;99970.06;5005236;28;19975;-82
2022/04/04 00:32:41;;;;;;;;;;;;;;;6.84;58.44;99956.03;4987900;28;19953;-82
2022/04/04 00:35:07;;;;;;;;;;;;;;;6.75;59.37;99950.75;4987411;28;19925;-83
2022/04/04 00:37:34;;;;;;;;;;;;;;;6.73;59.73;99961.25;5007713;28;19987;-82
2022/04/04 00:39:59;;;;;;;;;;;;;;;6.70;59.92;99963.84;4999615;28;19926;-82
2022/04/04 00:42:24;;;;;;;;;;;;;;;6.72;59.76;99967.38;4988222;28;19921;-82
2022/04/04 00:44:51;;;;;;;;;;;;;;;6.77;59.95;99964.78;4988022;28;20396;-82
2022/04/04 00:47:17;;;;;;;;;;;;;;;6.84;59.93;99965.66;4988122;28;20021;-82
2022/04/04 00:49:42;;;;;;;;;;;;;;;6.82;60.19;99957.78;4990770;28;20518;-83
2022/04/04 00:52:08;;;;;;;;;;;;;;;6.85;59.94;99965.69;5000198;28;19925;-82
2022/04/04 00:54:33;;;;;;;;;;;;;;;6.90;60.06;99968.31;4997970;28;20489;-83
2022/04/04 00:57:01;;;;;;;;;;;;;;;6.72;61.13;99958.59;5012247;28;19922;-86
2022/04/04 00:59:27;;;;;;;;;;;;;;;6.69;61.52;99969.09;4991995;28;19926;-82
2022/04/04 01:01:52;;;;;;;;;;;;;;;6.66;61.63;99964.72;4992362;28;19922;-83
2022/04/04 01:04:17;;;;;;;;;;;;;;;6.78;61.60;99962.16;4991629;28;19932;-82
2022/04/04 01:06:45;;;;;;;;;;;;;;;6.77;61.46;99960.41;4995868;28;19957;-83
2022/04/04 01:09:14;;;;;;;;;;;;;;;6.84;60.95;99963.03;5010852;28;20423;-83
2022/04/04 01:11:58;;;;;;;;;;;;;;;6.78;61.39;99961.25;5011417;28;19922;-82
2022/04/04 01:14:24;;;;;;;;;;;;;;;6.68;62.06;99964.72;4998939;28;19918;-81
2022/04/04 01:16:49;;;;;;;;;;;;;;;6.64;61.41;99963.81;4991672;28;19932;-82
2022/04/04 01:19:14;;;;;;;;;;;;;;;6.66;61.73;99959.47;4991755;28;19922;-81
2022/04/04 01:21:40;;;;;;;;;;;;;;;6.64;61.10;99958.56;4994571;28;19921;-82
2022/04/04 01:24:05;;;;;;;;;;;;;;;6.53;60.78;99960.28;5007443;28;19925;-81
2022/04/04 01:26:31;;;;;;;;;;;;;;;6.70;60.78;99963.84;4991312;28;19925;-83
2022/04/04 01:28:56;;;;;;;;;;;;;;;6.61;60.96;99962.06;4991354;28;19925;-82
2022/04/04 01:31:21;;;;;;;;;;;;;;;6.62;60.47;99961.19;4991646;28;19975;-82
2022/04/04 01:33:47;;;;;;;;;;;;;;;6.56;60.74;99968.16;5010461;28;19918;-82
2022/04/04 01:36:12;;;;;;;;;;;;;;;6.51;60.08;99967.25;4994928;28;19995;-82
2022/04/04 01:38:37;;;;;;;;;;;;;;;6.50;59.83;99970.72;4991076;28;19968;-82
2022/04/04 01:41:03;;;;;;;;;;;;;;;6.58;59.47;99972.53;5005899;28;20035;-82
2022/04/04 01:43:28;;;;;;;;;;;;;;;6.48;58.91;99964.63;5022400;28;19957;-82
2022/04/04 01:48:37;;;;;;;;;;;;;;;6.56;58.59;99976.88;4991348;28;19972;-82
2022/04/04 01:51:03;;;;;;;;;;;;;;;6.50;58.69;99979.47;5005705;28;19929;-82
2022/04/04 01:53:30;;;;;;;;;;;;;;;6.45;59.23;99986.44;5009435;28;20411;-82
2022/04/04 01:55:58;;;;;;;;;;;;;;;6.55;59.20;99985.63;4989954;28;19929;-82
2022/04/04 01:58:23;;;;;;;;;;;;;;;6.51;59.62;99990.84;4990570;28;19918;-81
2022/04/04 02:00:49;;;;;;;;;;;;;;;6.55;59.30;99988.25;4990563;28;19932;-83
2022/04/04 02:03:14;;;;;;;;;;;;;;;6.53;59.36;99983.84;4998460;28;19925;-82
2022/04/04 02:05:39;;;;;;;;;;;;;;;6.58;58.54;99985.66;4990597;28;19921;-83
2022/04/04 02:08:05;;;;;;;;;;;;;;;6.75;58.51;99995.34;4989949;28;19975;-82
2022/04/04 02:10:30;;;;;;;;;;;;;;;6.71;58.83;99993.59;4992815;28;19983;-83
2022/04/04 02:12:56;;;;;;;;;;;;;;;6.74;59.39;99999.72;5001778;28;19925;-84
2022/04/04 02:15:21;;;;;;;;;;;;;;;6.57;59.67;100007.47;5010067;28;19922;-83
2022/04/04 02:17:46;;;;;;;;;;;;;;;6.61;60.02;100009.25;5003928;28;19926;-82
2022/04/04 02:20:12;;;;;;;;;;;;;;;6.65;59.90;99996.16;4990431;28;19925;-83
2022/04/04 02:22:37;;;;;;;;;;;;;;;6.61;59.22;100009.25;4990381;28;20452;-84
2022/04/04 02:25:03;;;;;;;;;;;;;;;6.57;59.49;100004.00;4990379;28;20455;-83
2022/04/04 02:27:29;;;;;;;;;;;;;;;6.57;59.60;100009.22;4991415;28;20040;-83
2022/04/04 02:29:55;;;;;;;;;;;;;;;6.56;59.55;100008.34;4994719;28;20044;-83
2022/04/04 02:32:20;;;;;;;;;;;;;;;6.56;60.22;100012.72;4993928;28;19929;-83
2022/04/04 02:34:46;;;;;;;;;;;;;;;6.32;61.03;100010.78;4993032;28;19922;-83
2022/04/04 02:37:12;;;;;;;;;;;;;;;6.35;61.38;100011.72;4990182;28;19922;-83
2022/04/04 02:39:37;;;;;;;;;;;;;;;6.45;61.49;100030.97;5008491;28;20027;-82
2022/04/04 02:42:03;;;;;;;;;;;;;;;6.38;62.00;100039.66;5009477;28;20001;-81
2022/04/04 02:44:28;;;;;;;;;;;;;;;6.41;61.88;100037.97;5007090;28;19986;-81
2022/04/04 02:46:53;;;;;;;;;;;;;;;6.27;62.65;100035.22;5010083;28;19929;-81
2022/04/04 02:49:19;;;;;;;;;;;;;;;6.18;62.78;100035.16;4991681;28;19933;-81
2022/04/04 02:51:44;;;;;;;;;;;;;;;6.02;62.70;100034.13;4996477;28;19921;-82
2022/04/04 02:54:09;;;;;;;;;;;;;;;6.15;62.54;100035.13;5009336;28;19925;-81
2022/04/04 02:56:39;;;;;;;;;;;;;;;6.12;61.98;100026.34;4992744;28;20450;-82
2022/04/04 02:59:04;;;;;;;;;;;;;;;5.99;62.90;100033.22;4990571;28;19929;-81
2022/04/04 03:01:30;;;;;;;;;;;;;;;5.92;63.04;100035.75;5020333;28;20443;-81
2022/04/04 03:03:55;;;;;;;;;;;;;;;5.95;62.97;100034.91;4988992;28;19992;-82
2022/04/04 03:06:20;;;;;;;;;;;;;;;5.98;62.68;100034.97;4989811;28;19956;-82
2022/04/04 03:08:46;;;;;;;;;;;;;;;5.91;62.02;100030.50;5019619;28;19938;-82
2022/04/04 03:11:12;;;;;;;;;;;;;;;6.02;61.41;100034.13;4998534;28;19921;-82
2022/04/04 03:13:37;;;;;;;;;;;;;;;6.05;61.13;100046.38;4993510;28;19926;-81
2022/04/04 03:16:02;;;;;;;;;;;;;;;6.13;60.34;100042.06;5001729;28;19929;-81
2022/04/04 03:18:28;;;;;;;;;;;;;;;6.14;60.26;100042.97;5008222;28;19921;-82
2022/04/04 03:20:53;;;;;;;;;;;;;;;6.19;59.63;100044.75;5009027;28;20314;-83
2022/04/04 03:23:20;;;;;;;;;;;;;;;6.23;59.06;100048.28;5004097;28;20296;-83
2022/04/04 03:25:45;;;;;;;;;;;;;;;6.34;58.42;100045.75;4988274;28;20400;-83
2022/04/04 03:28:11;;;;;;;;;;;;;;;6.14;58.22;100045.59;4998819;28;19921;-84
2022/04/04 03:30:36;;;;;;;;;;;;;;;6.33;57.79;100057.09;5000556;28;19921;-83
2022/04/04 03:33:03;;;;;;;;;;;;;;;6.05;58.32;100043.75;5001432;28;20725;-83
2022/04/04 03:35:30;;;;;;;;;;;;;;;5.97;58.13;100048.94;5019965;28;19956;-82
2022/04/04 03:37:57;;;;;;;;;;;;;;;6.00;58.24;100043.72;5005060;28;19926;-82
2022/04/04 03:40:23;;;;;;;;;;;;;;;6.05;57.72;100046.38;5005572;28;19918;-82
2022/04/04 03:42:50;;;;;;;;;;;;;;;6.03;57.24;100051.59;4994947;28;20311;-82
2022/04/04 03:45:15;;;;;;;;;;;;;;;6.02;56.96;100060.31;4988554;28;19928;-80
2022/04/04 03:47:42;;;;;;;;;;;;;;;5.99;57.37;100062.91;5003571;28;19925;-81
2022/04/04 03:50:07;;;;;;;;;;;;;;;5.92;56.13;100069.81;5001800;28;19922;-81
2022/04/04 03:52:34;;;;;;;;;;;;;;;5.89;56.21;100068.91;4992020;28;19926;-84
2022/04/04 03:54:59;;;;;;;;;;;;;;;5.91;55.54;100070.66;4987759;28;20454;-81
2022/04/04 03:57:25;;;;;;;;;;;;;;;6.04;55.12;100073.41;5007932;28;19925;-83
2022/04/04 03:59:51;;;;;;;;;;;;;;;5.85;54.46;100082.81;5007488;28;20648;-82
2022/04/04 04:02:16;;;;;;;;;;;;;;;5.80;54.96;100080.16;5004120;28;19925;-81
2022/04/04 04:04:43;;;;;;;;;;;;;;;5.81;54.61;100081.91;5007347;28;19927;-81
2022/04/04 04:07:15;;;;;;;;;;;;;;;5.97;54.76;100087.34;4996050;28;19919;-83
2022/04/04 04:09:41;;;;;;;;;;;;;;;6.08;53.66;100091.81;4986180;28;19960;-82
2022/04/04 04:12:06;;;;;;;;;;;;;;;6.22;53.67;100084.06;4978907;28;19969;-82
2022/04/04 04:14:32;;;;;;;;;;;;;;;6.51;53.95;100090.44;4977475;28;19956;-81
2022/04/04 04:16:57;;;;;;;;;;;;;;;6.52;52.93;100094.78;4977019;28;19921;-81
2022/04/04 04:22:06;;;;;;;;;;;;;;;6.72;53.22;100100.19;4979370;28;20001;-82
2022/04/04 04:24:32;;;;;;;;;;;;;;;6.78;52.25;100102.84;4996663;28;19917;-82
2022/04/04 04:26:57;;;;;;;;;;;;;;;6.89;52.06;100109.06;5004847;28;19929;-83
2022/04/04 04:29:23;;;;;;;;;;;;;;;6.88;51.83;100125.66;5004416;28;20016;-82
2022/04/04 04:31:48;;;;;;;;;;;;;;;6.89;51.65;100129.16;4988123;28;20416;-83
2022/04/04 04:34:13;;;;;;;;;;;;;;;7.01;51.17;100131.00;4988025;28;19925;-90
2022/04/04 04:36:39;;;;;;;;;;;;;;;7.08;50.12;100130.19;5002205;28;19925;-83
2022/04/04 04:39:08;;;;;;;;;;;;;;;6.85;51.07;100130.03;4986953;28;20447;-83
2022/04/04 04:41:33;;;;;;;;;;;;;;;6.88;50.44;100137.91;5016743;28;19965;-84
2022/04/04 04:44:02;;;;;;;;;;;;;;;6.89;50.84;100142.25;4988353;28;20368;-86
2022/04/04 04:46:28;;;;;;;;;;;;;;;6.76;50.53;100150.03;5002378;28;20574;-84
2022/04/04 04:48:53;;;;;;;;;;;;;;;6.92;51.30;100150.16;4988618;28;19928;-85
2022/04/04 04:51:19;;;;;;;;;;;;;;;6.84;50.37;100154.47;4989021;28;20048;-84
2022/04/04 04:53:44;;;;;;;;;;;;;;;6.89;50.77;100160.63;5003493;28;19926;-86
2022/04/04 04:56:09;;;;;;;;;;;;;;;6.90;49.80;100163.25;4987518;28;19926;-86
2022/04/04 04:58:35;;;;;;;;;;;;;;;6.93;49.99;100168.53;5004038;28;20032;-84
2022/04/04 05:01:00;;;;;;;;;;;;;;;7.09;50.27;100166.91;5019269;28;20016;-82
2022/04/04 05:03:25;;;;;;;;;;;;;;;7.30;49.69;100170.53;4987431;28;19929;-84
2022/04/04 05:05:51;;;;;;;;;;;;;;;7.55;49.11;100170.66;4993110;28;20475;-85
2022/04/04 05:08:16;;;;;;;;;;;;;;;7.29;48.97;100174.91;5002588;28;19983;-87
2022/04/04 05:10:41;;;;;;;;;;;;;;;7.40;47.95;100169.72;4999776;28;19940;-85
2022/04/04 05:13:07;;;;;;;;;;;;;;;7.51;48.71;100169.78;5001565;28;20024;-86
2022/04/04 05:15:32;;;;;;;;;;;;;;;7.53;48.44;100176.78;4988241;28;20020;-86
2022/04/04 05:17:58;;;;;;;;;;;;;;;7.44;48.18;100175.84;4986446;28;19976;-86
2022/04/04 05:20:23;;;;;;;;;;;;;;;7.57;47.97;100180.31;4986279;28;19980;-86
2022/04/04 05:22:48;;;;;;;;;;;;;;;7.81;48.36;100173.41;5019821;28;19937;-85
2022/04/04 05:25:14;;;;;;;;;;;;;;;8.09;48.44;100189.25;4988088;28;19984;-86
2022/04/04 05:27:39;;;;;;;;;;;;;;;8.31;46.99;100192.81;4987647;28;19980;-87
2022/04/04 05:30:05;;;;;;;;;;;;;;;8.52;46.90;100190.25;4989122;28;19928;-86
2022/04/04 05:32:31;;;;;;;;;;;;;;;8.35;46.64;100200.72;5003239;28;19924;-84
2022/04/04 05:34:56;;;;;;;;;;;;;;;8.28;46.54;100192.81;4996435;28;19925;-85
2022/04/04 05:37:21;;;;;;;;;;;;;;;8.12;47.59;100194.53;4989784;28;19926;-86
2022/04/04 05:39:47;;;;;;;;;;;;;;;8.31;46.34;100193.72;5038700;28;19937;-84
2022/04/04 05:42:12;;;;;;;;;;;;;;;8.25;48.49;100193.69;5025112;28;19988;-83
2022/04/04 05:44:37;;;;;;;;;;;;;;;8.49;45.81;100200.78;4991397;28;19976;-84
2022/04/04 05:47:04;;;;;;;;;;;;;;;8.34;45.67;100195.44;4991313;28;19975;-85
2022/04/04 05:49:29;;;;;;;;;;;;;;;8.21;46.17;100195.41;5002265;28;20020;-86
2022/04/04 05:51:55;;;;;;;;;;;;;;;8.17;45.90;100209.44;4990993;28;20004;-83
2022/04/04 05:54:20;;;;;;;;;;;;;;;8.27;45.90;100212.97;5005665;28;19918;-82
2022/04/04 05:56:45;;;;;;;;;;;;;;;8.47;46.69;100217.44;4990819;28;19980;-82
2022/04/04 05:59:14;;;;;;;;;;;;;;;8.56;45.40;100210.44;5021388;28;19925;-81
2022/04/04 06:01:40;;;;;;;;;;;;;;;8.66;45.10;100213.06;5022482;28;19922;-82
2022/04/04 06:04:05;;;;;;;;;;;;;;;8.78;44.97;100226.25;4990925;28;19980;-81
2022/04/04 06:06:30;;;;;;;;;;;;;;;9.32;43.74;100224.47;4990362;28;19947;-82
2022/04/04 06:08:56;;;;;;;;;;;;;;;9.05;44.42;100217.47;4989931;28;19922;-82
2022/04/04 06:11:22;;;;;;;;;;;;;;;9.16;43.15;100191.16;4989693;28;20012;-83
2022/04/04 06:13:47;;;;;;;;;;;;;;;9.26;43.25;100220.97;4989909;28;20037;-83
2022/04/04 06:16:12;;;;;;;;;;;;;;;9.38;43.92;100205.16;4989482;28;20036;-81
2022/04/04 06:18:37;;;;;;;;;;;;;;;9.46;42.86;100205.13;4989663;28;19949;-82
2022/04/04 06:21:03;;;;;;;;;;;;;;;9.10;41.65;100214.84;4989815;28;19926;-82
2022/04/04 06:23:28;;;;;;;;;;;;;;;9.50;43.44;100205.13;4990396;28;19929;-82
2022/04/04 06:25:54;;;;;;;;;;;;;;;9.65;41.86;100211.22;4990087;28;19926;-82
2022/04/04 06:28:19;;;;;;;;;;;;;;;9.50;42.00;100204.25;4990558;28;20352;-82
2022/04/04 06:30:45;;;;;;;;;;;;;;;9.26;42.61;100207.81;4990686;28;19979;-83
2022/04/04 06:33:10;;;;;;;;;;;;;;;9.12;41.81;100221.84;4990417;28;19921;-82
2022/04/04 06:35:36;;;;;;;;;;;;;;;9.41;42.74;100213.03;4989993;28;19929;-81
2022/04/04 06:38:01;;;;;;;;;;;;;;;9.41;42.46;100199.00;4990988;28;19922;-81
2022/04/04 06:40:27;;;;;;;;;;;;;;;9.74;41.95;100223.50;4989437;28;19929;-82
2022/04/04 06:42:55;;;;;;;;;;;;;;;9.83;43.17;100219.06;5005616;28;20502;-82
2022/04/04 06:45:20;;;;;;;;;;;;;;;10.12;40.38;100212.81;4990011;28;19925;-82
2022/04/04 06:47:46;;;;;;;;;;;;;;;9.71;38.86;100232.28;4989811;28;19922;-81
2022/04/04 06:50:13;;;;;;;;;;;;;;;9.59;39.81;100222.66;4988797;28;19925;-82
2022/04/04 06:52:39;;;;;;;;;;;;;;;9.92;38.23;100222.56;4990334;28;19922;-81
2022/04/04 06:55:05;;;;;;;;;;;;;;;9.78;39.17;100222.63;4989822;28;19929;-81
2022/04/04 06:57:30;;;;;;;;;;;;;;;10.03;37.83;100218.13;5005441;28;19922;-81
2022/04/04 06:59:56;;;;;;;;;;;;;;;10.29;38.04;100225.03;4989313;28;19922;-82
2022/04/04 07:02:21;;;;;;;;;;;;;;;10.56;37.41;100229.28;4989467;28;20444;-82
2022/04/04 07:04:48;;;;;;;;;;;;;;;10.64;38.20;100227.47;4989178;28;19921;-83
2022/04/04 07:07:14;;;;;;;;;;;;;;;10.23;38.28;100225.06;5020890;28;19928;-84
2022/04/04 07:09:40;;;;;;;;;;;;;;;10.60;39.56;100236.31;4989176;28;19922;-81
2022/04/04 07:12:05;;;;;;;;;;;;;;;10.91;38.48;100229.03;4989378;28;20001;-83
2022/04/04 07:14:31;;;;;;;;;;;;;;;10.43;37.63;100235.53;4986627;28;20391;-82
2022/04/04 07:16:56;;;;;;;;;;;;;;;10.47;37.89;100229.34;4988716;28;20384;-83
2022/04/04 07:19:22;;;;;;;;;;;;;;;10.48;37.73;100231.97;4981256;28;20455;-83
2022/04/04 07:21:48;;;;;;;;;;;;;;;10.87;38.42;100236.97;4989869;28;19925;-84
2022/04/04 07:24:14;;;;;;;;;;;;;;;11.01;37.29;100247.44;4989563;28;20446;-83
2022/04/04 07:26:39;;;;;;;;;;;;;;;11.13;37.69;100247.34;4989684;28;19926;-83
2022/04/04 07:29:04;;;;;;;;;;;;;;;11.31;40.37;100237.50;4989006;28;19976;-83
2022/04/04 07:31:30;;;;;;;;;;;;;;;11.34;36.52;100243.63;4988885;28;19981;-83
2022/04/04 07:33:55;;;;;;;;;;;;;;;11.27;39.87;100255.13;4988218;28;20431;-84
2022/04/04 07:36:21;;;;;;;;;;;;;;;11.51;38.61;100248.75;4989813;28;19987;-85
2022/04/04 07:38:47;;;;;;;;;;;;;;;11.68;36.64;100255.63;4989428;28;20385;-82
2022/04/04 07:41:12;;;;;;;;;;;;;;;12.13;37.05;100258.69;4989847;28;19983;-85
2022/04/04 07:43:37;;;;;;;;;;;;;;;11.80;37.68;100256.38;4989109;28;20323;-84
2022/04/04 07:46:03;;;;;;;;;;;;;;;11.90;36.71;100258.91;4988557;28;20315;-83
2022/04/04 07:48:29;;;;;;;;;;;;;;;12.19;36.99;100258.59;4988559;28;20480;-85
2022/04/04 07:50:54;;;;;;;;;;;;;;;12.22;36.68;100248.00;4989180;28;20348;-84
2022/04/04 07:53:20;;;;;;;;;;;;;;;12.36;35.75;100256.59;4989241;28;19922;-84
2022/04/04 07:55:45;;;;;;;;;;;;;;;12.32;37.71;100254.03;4988800;28;19961;-84
2022/04/04 07:58:11;;;;;;;;;;;;;;;11.92;34.96;100254.47;4988744;28;19922;-84
2022/04/04 08:00:36;;;;;;;;;;;;;;;11.78;37.04;100246.72;4988720;28;19922;-85
2022/04/04 08:03:04;;;;;;;;;;;;;;;12.28;37.17;100247.00;4987697;28;19918;-84
2022/04/04 08:05:29;;;;;;;;;;;;;;;13.01;36.98;100250.38;4988643;28;20009;-84
2022/04/04 08:07:55;;;;;;;;;;;;;;;12.68;33.54;100247.34;4988235;28;20044;-84
2022/04/04 08:10:21;;;;;;;;;;;;;;;12.27;35.37;100245.28;4988870;28;19984;-85
2022/04/04 08:12:46;;;;;;;;;;;;;;;12.43;34.88;100245.94;4988742;28;19960;-85
2022/04/04 08:15:12;;;;;;;;;;;;;;;12.62;34.87;100246.53;4988546;28;20443;-84
2022/04/04 08:17:38;;;;;;;;;;;;;;;12.41;35.75;100247.75;4988412;28;19980;-84
2022/04/04 08:20:04;;;;;;;;;;;;;;;12.63;36.00;100249.16;4989067;28;20368;-84
2022/04/04 08:22:29;;;;;;;;;;;;;;;12.41;38.33;100242.44;4988480;28;20016;-84
2022/04/04 08:24:54;;;;;;;;;;;;;;;12.22;35.69;100250.63;4988820;28;20028;-84
2022/04/04 08:27:22;;;;;;;;;;;;;;;12.52;34.61;100248.47;4988744;28;19925;-84
2022/04/04 08:29:47;;;;;;;;;;;;;;;13.02;35.33;100236.22;4986465;28;19930;-84
2022/04/04 08:32:13;;;;;;;;;;;;;;;12.95;34.86;100231.06;4987795;28;19980;-84
2022/04/04 08:34:38;;;;;;;;;;;;;;;13.04;35.71;100233.56;4987577;28;19932;-84
2022/04/04 08:37:04;;;;;;;;;;;;;;;13.01;34.75;100225.66;5017108;28;19984;-85
2022/04/04 08:39:29;;;;;;;;;;;;;;;13.40;34.47;100225.91;4986800;28;20020;-84
2022/04/04 08:41:55;;;;;;;;;;;;;;;13.53;34.13;100221.22;5019674;28;19957;-84
2022/04/04 08:44:21;;;;;;;;;;;;;;;13.20;33.49;100223.56;4987546;28;19997;-84
2022/04/04 08:46:46;;;;;;;;;;;;;;;13.07;33.61;100221.13;4988238;28;20371;-83
2022/04/04 08:49:12;;;;;;;;;;;;;;;13.30;34.75;100218.97;4987354;28;19922;-85
2022/04/04 08:51:37;;;;;;;;;;;;;;;12.74;34.22;100209.31;4988532;28;19972;-82
2022/04/04 08:54:03;;;;;;;;;;;;;;;12.84;34.46;100216.22;4988101;28;19932;-80
2022/04/04 08:56:28;;;;;;;;;;;;;;;13.04;36.21;100213.22;4984921;28;19944;-82
2022/04/04 08:58:54;;;;;;;;;;;;;;;12.56;33.91;100199.88;4988025;28;19926;-80
2022/04/04 09:01:20;;;;;;;;;;;;;;;12.91;35.18;100187.84;4987732;28;20028;-80
2022/04/04 09:03:50;;;;;;;;;;;;;;;13.46;36.33;100201.06;4988218;28;19940;-80
2022/04/04 09:06:16;;;;;;;;;;;;;;;13.26;32.68;100197.81;4984386;28;19976;-80
2022/04/04 09:08:45;;;;;;;;;;;;;;;13.03;31.64;100194.72;4979505;28;20431;-80
2022/04/04 09:11:11;;;;;;;;;;;;;;;12.94;32.89;100186.94;4988170;28;20331;-81
2022/04/04 09:13:37;;;;;;;;;;;;;;;13.37;33.64;100179.13;4989969;28;19922;-81
2022/04/04 09:16:02;;;;;;;;;;;;;;;13.60;33.50;100175.16;4991580;28;19971;-82
2022/04/04 09:18:36;;;;;;;;;;;;;;;13.36;32.04;100171.19;4991943;28;20347;-82
2022/04/04 09:21:06;;;;;;;;;;;;;;;12.64;31.55;100181.25;4991543;28;19921;-80
2022/04/04 09:23:54;;;;;;;;;;;;;;;12.88;36.62;100170.25;4991995;28;19918;-81
2022/04/04 09:26:38;;;;;;;;;;;;;;;13.68;32.54;100159.09;5006439;28;19925;-82
2022/04/04 09:29:17;;;;;;;;;;;;;;;14.57;33.68;100150.97;4991198;28;19925;-81
2022/04/04 09:31:53;;;;;;;;;;;;;;;14.85;31.25;100141.41;4991978;28;20012;-81
2022/04/04 09:34:19;;;;;;;;;;;;;;;14.42;30.51;100138.91;4991519;28;19925;-81
2022/04/04 09:36:46;;;;;;;;;;;;;;;14.74;32.50;100124.88;4991361;28;19988;-81
2022/04/04 09:39:13;;;;;;;;;;;;;;;14.85;31.61;100125.47;4991813;28;19921;-80
2022/04/04 09:41:39;;;;;;;;;;;;;;;14.17;32.00;100120.91;4991749;28;19921;-81
2022/04/04 09:44:16;;;;;;;;;;;;;;;14.15;32.65;100113.00;4991492;28;20315;-83
2022/04/04 09:46:42;;;;;;;;;;;;;;;13.74;32.82;100105.97;4991575;28;19917;-81
2022/04/04 09:49:16;;;;;;;;;;;;;;;14.04;31.81;100119.44;4991416;28;19921;-81
2022/04/04 09:51:54;;;;;;;;;;;;;;;14.58;31.80;100112.88;4991040;28;19922;-81
2022/04/04 09:54:24;;;;;;;;;;;;;;;14.30;32.40;100108.22;4990065;28;19926;-81
2022/04/04 09:56:54;;;;;;;;;;;;;;;13.94;33.52;100108.16;4991078;28;19928;-81
2022/04/04 09:59:19;;;;;;;;;;;;;;;13.45;33.10;100104.78;4990474;28;20470;-81
2022/04/04 10:01:45;;;;;;;;;;;;;;;13.44;33.55;100100.41;5005931;28;19976;-81
2022/04/04 10:04:14;;;;;;;;;;;;;;;13.76;34.11;100090.88;4991027;28;19922;-81
2022/04/04 10:06:42;;;;;;;;;;;;;;;14.27;32.89;100073.81;5006097;28;19972;-81
2022/04/04 10:09:08;;;;;;;;;;;;;;;14.29;35.68;100090.59;4991038;28;19921;-81
2022/04/04 10:11:35;;;;;;;;;;;;;;;14.87;33.25;100085.59;4990368;28;19933;-81
2022/04/04 10:14:01;;;;;;;;;;;;;;;15.17;33.15;100088.34;4990495;28;19925;-81
2022/04/04 10:16:26;;;;;;;;;;;;;;;15.30;33.44;100076.44;4990715;28;19929;-81
2022/04/04 10:18:54;;;;;;;;;;;;;;;15.58;33.32;100075.66;5005600;28;19925;-81
2022/04/04 10:21:19;;;;;;;;;;;;;;;15.38;33.91;100077.13;4990532;28;20406;-81
2022/04/04 10:23:47;;;;;;;;;;;;;;;15.87;31.29;100065.97;4990539;28;19922;-82
2022/04/04 10:26:12;;;;;;;;;;;;;;;15.66;32.28;100063.03;4989526;28;19973;-82
2022/04/04 10:28:38;;;;;;;;;;;;;;;15.47;31.22;100028.13;4991015;28;19921;-82
2022/04/04 10:31:15;;;;;;;;;;;;;;;15.49;31.08;100060.88;4990015;28;19918;-81
2022/04/04 10:33:41;;;;;;;;;;;;;;;14.49;33.82;100058.25;4990380;28;19922;-81
2022/04/04 10:36:07;;;;;;;;;;;;;;;15.03;33.49;100060.38;4990376;28;20464;-83
2022/04/04 10:38:54;;;;;;;;;;;;;;;15.47;33.99;100056.50;4990028;28;19918;-83
2022/04/04 10:41:20;;;;;;;;;;;;;;;15.88;32.18;100055.28;4989762;28;20016;-82
2022/04/04 10:43:47;;;;;;;;;;;;;;;15.91;30.75;100049.88;4990182;28;20029;-82
2022/04/04 10:46:14;;;;;;;;;;;;;;;15.44;31.36;100035.31;4990383;28;19929;-81
2022/04/04 10:48:40;;;;;;;;;;;;;;;15.58;30.71;100035.75;4989743;28;19977;-81
2022/04/04 10:51:17;;;;;;;;;;;;;;;15.34;32.26;100038.25;4989912;28;19922;-81
2022/04/04 10:53:57;;;;;;;;;;;;;;;14.89;33.02;100027.13;4990139;28;19922;-78
2022/04/04 10:56:26;;;;;;;;;;;;;;;14.67;32.33;100030.34;4989189;28;19928;-81
2022/04/04 10:58:53;;;;;;;;;;;;;;;15.33;32.64;100027.66;4990229;28;19918;-81
2022/04/04 11:01:20;;;;;;;;;;;;;;;14.87;33.02;100029.81;4989723;28;19922;-80
2022/04/04 11:03:52;;;;;;;;;;;;;;;15.43;31.54;100017.63;5004622;28;19918;-82
2022/04/04 11:09:18;;;;;;;;;;;;;;;15.74;34.00;100012.25;4989247;28;19932;-82
2022/04/04 11:11:48;;;;;;;;;;;;;;;15.52;33.35;100009.38;5019908;28;19922;-82
2022/04/04 11:14:15;;;;;;;;;;;;;;;15.17;32.61;100001.53;4988844;28;19918;-80
2022/04/04 11:16:59;;;;;;;;;;;;;;;15.39;34.25;100000.91;4988437;28;19945;-80
2022/04/04 11:19:27;;;;;;;;;;;;;;;15.63;33.94;99998.41;4970223;28;19922;-80
2022/04/04 11:21:53;;;;;;;;;;;;;;;15.99;31.86;100001.72;4969185;28;19926;-81
2022/04/04 11:24:18;;;;;;;;;;;;;;;16.08;31.42;99998.78;4970314;28;19922;-81
2022/04/04 11:26:46;;;;;;;;;;;;;;;15.68;31.67;100004.47;5010326;28;20010;-81
2022/04/04 11:29:15;;;;;;;;;;;;;;;15.76;31.89;99995.31;4989336;28;20454;-81
2022/04/04 11:31:50;;;;;;;;;;;;;;;15.55;31.47;99999.53;4988167;28;19917;-81
2022/04/04 11:34:16;;;;;;;;;;;;;;;15.49;32.01;99982.88;4988767;28;20396;-82
2022/04/04 11:36:43;;;;;;;;;;;;;;;15.67;33.94;99979.66;4989155;28;19924;-81
2022/04/04 11:39:10;;;;;;;;;;;;;;;16.04;33.90;99981.16;4988269;28;19961;-80
2022/04/04 11:41:46;;;;;;;;;;;;;;;16.07;31.83;99972.22;4988597;28;19922;-80
2022/04/04 11:44:21;;;;;;;;;;;;;;;15.59;31.49;99979.03;4988299;28;19932;-81
2022/04/04 11:47:02;;;;;;;;;;;;;;;15.50;31.40;99974.84;4989128;28;20464;-81
2022/04/04 11:49:38;;;;;;;;;;;;;;;15.71;31.15;99968.00;4988316;28;20404;-81
2022/04/04 11:52:06;;;;;;;;;;;;;;;15.80;31.23;99961.56;4988585;28;19932;-81
2022/04/04 11:54:41;;;;;;;;;;;;;;;15.75;31.05;99959.03;4988526;28;20479;-81
2022/04/04 11:57:07;;;;;;;;;;;;;;;16.02;30.85;99948.41;4969506;28;20404;-81
2022/04/04 11:59:36;;;;;;;;;;;;;;;15.86;31.16;99950.69;4968563;28;19922;-80
2022/04/04 12:02:03;;;;;;;;;;;;;;;16.18;30.37;99937.25;4969055;28;19918;-80
2022/04/04 12:04:29;;;;;;;;;;;;;;;15.42;31.12;99937.00;4969372;28;19972;-81
2022/04/04 12:06:55;;;;;;;;;;;;;;;15.66;31.46;99931.81;4973378;28;19926;-80
2022/04/04 12:09:28;;;;;;;;;;;;;;;15.78;31.58;99920.81;4977646;28;20020;-81
2022/04/04 12:11:59;;;;;;;;;;;;;;;15.92;31.20;99921.22;4988502;28;20464;-82
2022/04/04 12:14:29;;;;;;;;;;;;;;;15.79;32.21;99919.91;4989090;28;19941;-81
2022/04/04 12:16:55;;;;;;;;;;;;;;;16.13;32.17;99910.81;4988606;28;20011;-80
2022/04/04 12:19:20;;;;;;;;;;;;;;;16.21;31.25;99915.84;4988688;28;20652;-80
2022/04/04 12:21:46;;;;;;;;;;;;;;;16.12;31.46;99914.38;4976014;28;20708;-81
2022/04/04 12:27:15;;;;;;;;;;;;;;;15.47;33.08;99911.16;4968956;28;19968;-82
2022/04/04 12:29:43;;;;;;;;;;;;;;;14.84;32.77;99908.63;4968635;28;19922;-81
2022/04/04 12:32:13;;;;;;;;;;;;;;;15.14;32.68;99910.44;4984042;28;19922;-81
2022/04/04 12:34:38;;;;;;;;;;;;;;;15.46;32.57;99898.78;4969226;28;19922;-81
2022/04/04 12:37:07;;;;;;;;;;;;;;;15.64;32.44;99892.00;5000623;28;19929;-81
2022/04/04 12:39:33;;;;;;;;;;;;;;;16.09;31.59;99882.53;4969352;28;19953;-83
2022/04/04 12:41:59;;;;;;;;;;;;;;;16.38;30.70;99878.84;4968907;28;20385;-82
2022/04/04 12:44:25;;;;;;;;;;;;;;;16.18;32.10;99871.56;4969329;28;19926;-82
2022/04/04 12:47:03;;;;;;;;;;;;;;;16.79;31.73;99863.16;4970269;28;20407;-83
2022/04/04 12:49:30;;;;;;;;;;;;;;;16.53;31.02;99865.91;5022359;28;20025;-81
2022/04/04 12:52:06;;;;;;;;;;;;;;;16.46;30.55;99852.81;4994952;28;19922;-83
2022/04/04 12:54:33;;;;;;;;;;;;;;;15.68;31.65;99858.22;4994370;28;19929;-84